Time;durP1;ratioP1;P1;durP2;ratioP2;P2;SDS_P1;SDS_P2;PMS_P1;PMS_P2;Temp;Humidity;BMP_temperature;BMP_pressure;BME280_temperature;BME280_humidity;BME280_pressure;Samples;Min_cycle;Max_cycle;Signal;HPM_P1;HPM_P2
2022/02/20 00:01:25;;;;;;;34.40;24.60;;;14.50;96.70;;;;;;4996803;28;20106;-66
2022/02/20 00:03:51;;;;;;;38.83;25.52;;;14.50;96.60;;;;;;4997140;28;20026;-66
2022/02/20 00:06:17;;;;;;;39.30;26.92;;;14.50;96.70;;;;;;4996986;28;20031;-63
2022/02/20 00:08:42;;;;;;;39.38;27.55;;;14.50;96.80;;;;;;4996230;28;20038;-65
2022/02/20 00:11:08;;;;;;;43.05;27.30;;;14.50;96.80;;;;;;4996550;28;20380;-64
2022/02/20 00:13:34;;;;;;;39.88;27.88;;;14.40;96.80;;;;;;4996690;28;20395;-64
2022/02/20 00:16:01;;;;;;;35.88;27.55;;;14.40;96.90;;;;;;4997020;28;20022;-67
2022/02/20 00:18:28;;;;;;;41.95;28.38;;;14.40;97.00;;;;;;4996990;28;20098;-68
2022/02/20 00:20:54;;;;;;;39.58;28.42;;;14.40;97.30;;;;;;4996846;28;20050;-67
2022/02/20 00:23:20;;;;;;;40.42;27.08;;;14.40;97.10;;;;;;4997086;28;20022;-67
2022/02/20 00:25:46;;;;;;;38.95;28.60;;;14.40;97.10;;;;;;4996659;28;20061;-66
2022/02/20 00:28:13;;;;;;;38.08;28.25;;;14.30;97.30;;;;;;4996434;28;20022;-66
2022/02/20 00:30:38;;;;;;;37.10;28.92;;;14.20;97.30;;;;;;4996180;28;20492;-67
2022/02/20 00:33:04;;;;;;;36.75;27.05;;;14.20;97.40;;;;;;4996368;28;20105;-69
2022/02/20 00:35:35;;;;;;;36.85;28.10;;;14.30;97.50;;;;;;4996334;28;20026;-65
2022/02/20 00:38:02;;;;;;;39.67;28.23;;;14.30;97.30;;;;;;4996053;28;20498;-67
2022/02/20 00:40:28;;;;;;;36.53;26.65;;;14.40;97.30;;;;;;4996128;28;20034;-65
2022/02/20 00:42:55;;;;;;;41.30;28.85;;;14.40;97.30;;;;;;4996128;28;20062;-63
2022/02/20 00:45:21;;;;;;;39.50;28.42;;;14.40;97.30;;;;;;4996097;28;20496;-63
2022/02/20 00:47:47;;;;;;;40.33;29.25;;;14.50;97.20;;;;;;4996182;28;20104;-64
2022/02/20 00:50:13;;;;;;;38.20;27.42;;;14.50;97.20;;;;;;4996112;28;20102;-63
2022/02/20 00:52:39;;;;;;;37.78;27.27;;;14.50;97.10;;;;;;4996194;28;20057;-64
2022/02/20 00:55:06;;;;;;;38.10;27.38;;;14.50;97.20;;;;;;4995657;28;20153;-65
2022/02/20 00:57:32;;;;;;;35.15;26.10;;;14.50;97.20;;;;;;4995998;28;20080;-66
2022/02/20 00:59:58;;;;;;;38.10;27.13;;;14.50;97.10;;;;;;4995738;28;20502;-63
2022/02/20 01:02:23;;;;;;;36.08;27.48;;;14.50;97.10;;;;;;4995691;28;20041;-65
2022/02/20 01:04:49;;;;;;;41.55;27.73;;;14.60;97.20;;;;;;4994899;28;20022;-65
2022/02/20 01:07:18;;;;;;;40.63;27.33;;;14.60;97.10;;;;;;4995845;28;20102;-65
2022/02/20 01:09:44;;;;;;;39.42;28.95;;;14.60;97.10;;;;;;4995476;28;20023;-67
2022/02/20 01:12:10;;;;;;;38.38;26.98;;;14.50;97.10;;;;;;4995628;28;20368;-68
2022/02/20 01:14:35;;;;;;;36.83;28.20;;;14.50;97.30;;;;;;4978186;28;20041;-70
2022/02/20 01:17:02;;;;;;;37.72;26.73;;;14.50;97.20;;;;;;4998937;28;20023;-63
2022/02/20 01:19:27;;;;;;;36.65;26.75;;;14.50;97.20;;;;;;4999472;28;20022;-66
2022/02/20 01:21:53;;;;;;;34.22;26.75;;;14.50;97.20;;;;;;4983341;28;20117;-76
2022/02/20 01:24:19;;;;;;;38.70;26.33;;;14.50;97.30;;;;;;4995712;28;20550;-67
2022/02/20 01:26:44;;;;;;;37.25;27.27;;;14.50;97.30;;;;;;4995710;28;20026;-77
2022/02/20 01:29:10;;;;;;;35.50;25.00;;;14.50;97.20;;;;;;4995291;28;20061;-67
2022/02/20 01:31:36;;;;;;;34.00;26.00;;;14.60;97.20;;;;;;4977949;28;20476;-65
2022/02/20 01:34:02;;;;;;;40.95;26.45;;;14.60;97.10;;;;;;4995146;28;20022;-74
2022/02/20 01:36:27;;;;;;;34.30;27.45;;;14.60;96.90;;;;;;4995296;28;20365;-70
2022/02/20 01:38:53;;;;;;;35.10;26.42;;;14.50;96.90;;;;;;4995090;28;20170;-64
2022/02/20 01:41:20;;;;;;;35.42;25.27;;;14.50;97.10;;;;;;4995093;28;20038;-65
2022/02/20 01:43:46;;;;;;;36.15;25.65;;;14.40;97.10;;;;;;4977665;28;20034;-63
2022/02/20 01:46:12;;;;;;;41.03;27.48;;;14.40;97.20;;;;;;4995292;28;20026;-73
2022/02/20 01:48:38;;;;;;;37.33;26.35;;;14.40;97.10;;;;;;4977425;28;20019;-65
2022/02/20 01:51:05;;;;;;;32.22;24.58;;;14.50;97.10;;;;;;4994390;28;20053;-64
2022/02/20 01:53:31;;;;;;;31.77;24.00;;;14.50;97.10;;;;;;4994464;28;20399;-73
2022/02/20 01:55:57;;;;;;;35.70;24.90;;;14.50;97.00;;;;;;4994924;28;20105;-72
2022/02/20 01:58:23;;;;;;;28.98;24.20;;;14.50;96.90;;;;;;4994790;28;20102;-63
2022/02/20 02:00:49;;;;;;;33.10;24.80;;;14.50;97.00;;;;;;4994589;28;20110;-65
2022/02/20 02:03:16;;;;;;;29.75;24.00;;;14.50;97.00;;;;;;4994589;28;20037;-64
2022/02/20 02:05:43;;;;;;;34.05;22.58;;;14.50;96.80;;;;;;4994938;28;20030;-64
2022/02/20 02:08:10;;;;;;;30.55;23.60;;;14.50;96.80;;;;;;4994678;28;20076;-64
2022/02/20 02:10:37;;;;;;;30.95;23.30;;;14.50;96.90;;;;;;4994840;28;20105;-63
2022/02/20 02:13:03;;;;;;;32.10;25.27;;;14.50;96.80;;;;;;4994555;28;20026;-64
2022/02/20 02:15:28;;;;;;;35.35;25.10;;;14.40;96.90;;;;;;4977003;28;20033;-64
2022/02/20 02:17:54;;;;;;;36.33;27.02;;;14.40;97.00;;;;;;4994351;28;20030;-63
2022/02/20 02:20:20;;;;;;;40.45;27.33;;;14.40;97.10;;;;;;4994446;28;20097;-63
2022/02/20 02:22:47;;;;;;;37.42;27.23;;;14.40;97.20;;;;;;4994246;28;20112;-64
2022/02/20 02:25:13;;;;;;;37.25;27.23;;;14.40;97.30;;;;;;4976732;28;20106;-65
2022/02/20 02:27:38;;;;;;;40.05;27.83;;;14.40;97.30;;;;;;4994032;28;20498;-64
2022/02/20 02:30:08;;;;;;;39.97;26.52;;;14.40;97.30;;;;;;4994217;28;20027;-64
2022/02/20 02:32:34;;;;;;;38.50;28.63;;;14.40;97.10;;;;;;4976970;28;20030;-64
2022/02/20 02:35:00;;;;;;;38.85;26.73;;;14.50;97.20;;;;;;4993964;28;20457;-68
2022/02/20 02:37:25;;;;;;;41.25;28.25;;;14.50;97.10;;;;;;4993912;28;20019;-64
2022/02/20 02:39:52;;;;;;;41.55;28.15;;;14.50;97.10;;;;;;4993859;28;20029;-64
2022/02/20 02:42:18;;;;;;;36.75;28.23;;;14.50;97.20;;;;;;4993733;28;20137;-65
2022/02/20 02:44:44;;;;;;;38.13;28.65;;;14.50;97.30;;;;;;4993971;28;20433;-66
2022/02/20 02:47:10;;;;;;;37.85;27.95;;;14.40;97.20;;;;;;4993929;28;20046;-65
2022/02/20 02:49:37;;;;;;;35.85;26.98;;;14.40;97.30;;;;;;4993771;28;20109;-67
2022/02/20 02:52:03;;;;;;;36.58;28.05;;;14.40;97.50;;;;;;4993805;28;20027;-66
2022/02/20 02:54:29;;;;;;;34.55;27.13;;;14.50;97.30;;;;;;4993751;28;20030;-63
2022/02/20 02:56:55;;;;;;;37.97;28.55;;;14.50;97.40;;;;;;4993721;28;20109;-65
2022/02/20 02:59:20;;;;;;;42.58;27.58;;;14.50;97.30;;;;;;4993397;28;20060;-64
2022/02/20 03:01:47;;;;;;;41.15;29.00;;;14.50;97.30;;;;;;4993308;28;20041;-63
2022/02/20 03:04:13;;;;;;;39.65;28.05;;;14.50;97.30;;;;;;4976323;28;20038;-66
2022/02/20 03:06:39;;;;;;;38.30;28.05;;;14.50;97.20;;;;;;4993587;28;20026;-66
2022/02/20 03:09:06;;;;;;;43.97;30.02;;;14.40;97.30;;;;;;4993531;28;20538;-64
2022/02/20 03:11:32;;;;;;;40.45;29.67;;;14.30;97.30;;;;;;4993570;28;20396;-64
2022/02/20 03:13:59;;;;;;;41.88;29.27;;;14.30;97.50;;;;;;4993515;28;20491;-64
2022/02/20 03:16:25;;;;;;;38.05;28.15;;;14.30;97.60;;;;;;4993763;28;20089;-74
2022/02/20 03:18:51;;;;;;;35.25;26.48;;;14.30;97.60;;;;;;4976315;28;20504;-63
2022/02/20 03:21:17;;;;;;;37.53;29.08;;;14.40;97.40;;;;;;4993504;28;20043;-63
2022/02/20 03:23:43;;;;;;;37.15;28.08;;;14.40;97.40;;;;;;4993531;28;20387;-64
2022/02/20 03:26:09;;;;;;;41.60;29.38;;;14.30;97.40;;;;;;4993462;28;20034;-67
2022/02/20 03:28:35;;;;;;;38.22;29.00;;;14.30;97.50;;;;;;4998651;28;20077;-64
2022/02/20 03:31:01;;;;;;;37.80;27.23;;;14.20;97.50;;;;;;5000064;28;20037;-71
2022/02/20 03:33:28;;;;;;;36.70;26.75;;;14.20;97.60;;;;;;4999958;28;20114;-66
2022/02/20 03:35:54;;;;;;;34.58;25.40;;;14.20;97.60;;;;;;4999827;28;20094;-67
2022/02/20 03:38:20;;;;;;;34.50;25.50;;;14.10;97.50;;;;;;4999668;28;20152;-64
2022/02/20 03:40:45;;;;;;;34.75;24.20;;;14.10;97.50;;;;;;4999812;28;20069;-64
2022/02/20 03:43:13;;;;;;;36.13;24.35;;;14.10;97.50;;;;;;4999714;28;20129;-63
2022/02/20 03:45:39;;;;;;;32.72;23.42;;;14.00;97.50;;;;;;4999979;28;20391;-64
2022/02/20 03:48:04;;;;;;;33.67;24.98;;;14.00;97.60;;;;;;4999970;28;20076;-64
2022/02/20 03:50:30;;;;;;;30.63;24.35;;;14.00;97.70;;;;;;4999738;28;20084;-64
2022/02/20 03:52:56;;;;;;;34.75;24.73;;;14.00;97.70;;;;;;4982377;28;20085;-66
2022/02/20 03:55:22;;;;;;;31.73;23.52;;;14.00;97.70;;;;;;4999589;28;20039;-65
2022/02/20 03:57:47;;;;;;;36.00;24.52;;;14.10;98.00;;;;;;4999470;28;20022;-64
2022/02/20 04:00:16;;;;;;;33.42;24.85;;;14.10;97.70;;;;;;4999655;28;20120;-64
2022/02/20 04:02:42;;;;;;;29.25;23.20;;;14.10;97.70;;;;;;4999505;28;20061;-66
2022/02/20 04:05:10;;;;;;;31.90;22.50;;;14.20;97.60;;;;;;4999716;28;20065;-67
2022/02/20 04:07:36;;;;;;;34.28;23.15;;;14.30;97.50;;;;;;4982275;28;20392;-64
2022/02/20 04:10:04;;;;;;;30.63;22.52;;;14.30;97.40;;;;;;4982107;28;20034;-67
2022/02/20 04:12:30;;;;;;;28.48;21.17;;;14.30;97.30;;;;;;4999452;28;20387;-66
2022/02/20 04:14:56;;;;;;;36.88;23.67;;;14.30;97.30;;;;;;4982155;28;20037;-65
2022/02/20 04:17:23;;;;;;;37.03;24.08;;;14.30;97.30;;;;;;4999811;28;20379;-65
2022/02/20 04:19:49;;;;;;;28.33;21.58;;;14.30;97.30;;;;;;4999574;28;20452;-63
2022/02/20 04:22:15;;;;;;;35.70;23.08;;;14.30;97.30;;;;;;4999507;28;20038;-67
2022/02/20 04:24:41;;;;;;;31.33;23.80;;;14.30;97.30;;;;;;4999547;28;20023;-64
2022/02/20 04:27:07;;;;;;;29.17;22.45;;;14.40;97.30;;;;;;4999555;28;20018;-64
2022/02/20 04:29:33;;;;;;;29.90;22.27;;;14.40;97.10;;;;;;4999522;28;20096;-66
2022/02/20 04:31:59;;;;;;;30.25;23.52;;;14.40;97.00;;;;;;4999632;28;20034;-64
2022/02/20 04:34:24;;;;;;;35.88;24.20;;;14.40;97.00;;;;;;4999412;28;20314;-63
2022/02/20 04:36:50;;;;;;;33.05;22.92;;;14.50;97.10;;;;;;4999401;28;20034;-63
2022/02/20 04:39:16;;;;;;;31.65;22.70;;;14.50;97.10;;;;;;4996411;28;20022;-64
2022/02/20 04:41:41;;;;;;;32.67;22.60;;;14.50;96.90;;;;;;4995903;28;20124;-64
2022/02/20 04:44:07;;;;;;;35.97;24.83;;;14.60;96.90;;;;;;4996046;28;20435;-64
2022/02/20 04:46:35;;;;;;;34.72;23.20;;;14.60;96.80;;;;;;4996366;28;20065;-67
2022/02/20 04:49:04;;;;;;;28.65;22.45;;;14.60;96.60;;;;;;4996091;28;20423;-65
2022/02/20 04:51:34;;;;;;;32.45;22.88;;;14.50;96.70;;;;;;4996147;28;20464;-69
2022/02/20 04:54:01;;;;;;;32.03;23.45;;;14.50;96.70;;;;;;4996442;28;20351;-65
2022/02/20 04:56:27;;;;;;;28.90;22.10;;;14.50;96.80;;;;;;4998652;28;20026;-63
2022/02/20 04:58:53;;;;;;;27.80;21.25;;;14.50;96.80;;;;;;4999557;28;20034;-64
2022/02/20 05:01:19;;;;;;;29.08;22.48;;;14.60;96.90;;;;;;4999034;28;20027;-64
2022/02/20 05:03:46;;;;;;;34.72;22.52;;;14.60;96.80;;;;;;4997458;28;20046;-66
2022/02/20 05:06:13;;;;;;;33.90;22.52;;;14.60;96.80;;;;;;4995946;28;20019;-64
2022/02/20 05:08:39;;;;;;;33.13;22.30;;;14.60;96.70;;;;;;4995866;28;20395;-64
2022/02/20 05:11:05;;;;;;;27.73;21.13;;;14.60;96.60;;;;;;4995864;28;20027;-67
2022/02/20 05:13:30;;;;;;;28.95;21.60;;;14.60;96.70;;;;;;4998190;28;20027;-66
2022/02/20 05:15:56;;;;;;;34.72;23.08;;;14.60;96.70;;;;;;5001639;28;20183;-65
2022/02/20 05:18:22;;;;;;;28.95;22.02;;;14.60;96.70;;;;;;5002177;28;20022;-66
2022/02/20 05:20:52;;;;;;;27.00;21.60;;;14.60;96.70;;;;;;4999336;28;20439;-63
2022/02/20 05:23:18;;;;;;;31.17;21.30;;;14.70;96.80;;;;;;4995199;28;20030;-64
2022/02/20 05:25:43;;;;;;;33.13;23.42;;;14.70;96.70;;;;;;4995317;28;20048;-63
2022/02/20 05:28:09;;;;;;;31.02;21.73;;;14.60;96.60;;;;;;4995232;28;20027;-63
2022/02/20 05:30:35;;;;;;;30.20;22.50;;;14.60;96.60;;;;;;4995515;28;20027;-62
2022/02/20 05:33:00;;;;;;;28.00;21.40;;;14.60;96.60;;;;;;4995189;28;20015;-67
2022/02/20 05:35:26;;;;;;;31.60;22.48;;;14.50;96.80;;;;;;4995151;28;20126;-64
2022/02/20 05:37:52;;;;;;;32.33;21.13;;;14.50;96.90;;;;;;4994937;28;20444;-63
2022/02/20 05:40:21;;;;;;;30.02;21.90;;;14.50;97.00;;;;;;4995065;28;20046;-68
2022/02/20 05:42:47;;;;;;;39.95;23.10;;;14.50;97.00;;;;;;4977298;28;20066;-65
2022/02/20 05:45:13;;;;;;;33.75;22.35;;;14.50;97.10;;;;;;4995201;28;20157;-65
2022/02/20 05:47:39;;;;;;;32.72;22.10;;;14.50;97.10;;;;;;4994845;28;20396;-64
2022/02/20 05:50:07;;;;;;;31.60;22.60;;;14.50;97.10;;;;;;4994630;28;20023;-64
2022/02/20 05:52:33;;;;;;;30.13;22.67;;;14.50;97.10;;;;;;4994721;28;20080;-65
2022/02/20 05:54:58;;;;;;;30.27;21.58;;;14.50;97.20;;;;;;4994840;28;20105;-64
2022/02/20 05:57:24;;;;;;;26.42;21.27;;;14.50;97.10;;;;;;4994615;28;20034;-65
2022/02/20 05:59:50;;;;;;;31.90;21.23;;;14.50;97.20;;;;;;4977253;28;20030;-64
2022/02/20 06:02:16;;;;;;;30.85;22.20;;;14.50;97.20;;;;;;4977125;28;20058;-63
2022/02/20 06:04:42;;;;;;;31.65;23.77;;;14.50;97.50;;;;;;4994612;28;20018;-63
2022/02/20 06:07:10;;;;;;;31.45;21.85;;;14.50;97.30;;;;;;4960946;28;20034;-63
2022/02/20 06:09:36;;;;;;;30.17;21.48;;;14.60;97.20;;;;;;4977446;28;20026;-67
2022/02/20 06:12:04;;;;;;;34.97;21.88;;;14.60;97.20;;;;;;4977176;28;20039;-63
2022/02/20 06:14:30;;;;;;;34.80;21.65;;;14.60;97.20;;;;;;4994487;28;20021;-66
2022/02/20 06:16:57;;;;;;;32.03;21.52;;;14.60;97.20;;;;;;4994417;28;20419;-64
2022/02/20 06:19:23;;;;;;;26.60;20.73;;;14.60;97.10;;;;;;4994074;28;20026;-64
2022/02/20 06:21:48;;;;;;;31.88;21.33;;;14.60;97.20;;;;;;4994011;28;20139;-63
2022/02/20 06:24:14;;;;;;;28.85;21.20;;;14.50;97.30;;;;;;4994262;28;20058;-64
2022/02/20 06:26:40;;;;;;;31.23;21.23;;;14.60;97.40;;;;;;4994170;28;20029;-63
2022/02/20 06:29:05;;;;;;;31.50;22.02;;;14.60;97.30;;;;;;4994222;28;20046;-64
2022/02/20 06:31:31;;;;;;;31.17;21.67;;;14.60;97.30;;;;;;4994096;28;20022;-65
2022/02/20 06:33:57;;;;;;;26.45;20.70;;;14.60;97.30;;;;;;4994000;28;20487;-64
2022/02/20 06:36:22;;;;;;;29.88;20.35;;;14.60;97.30;;;;;;4993991;28;20030;-69
2022/02/20 06:38:48;;;;;;;37.47;23.30;;;14.60;97.30;;;;;;4993845;28;20076;-65
2022/02/20 06:41:14;;;;;;;29.27;20.45;;;14.60;97.10;;;;;;4993788;28;20050;-64
2022/02/20 06:43:40;;;;;;;28.25;19.65;;;14.70;97.20;;;;;;4993823;28;20389;-65
2022/02/20 06:46:09;;;;;;;28.48;19.80;;;14.70;97.10;;;;;;4994026;28;20030;-79
2022/02/20 06:48:35;;;;;;;26.08;17.67;;;14.70;97.00;;;;;;4993927;28;20028;-69
2022/02/20 06:51:00;;;;;;;25.33;17.17;;;14.80;96.90;;;;;;4994172;28;20105;-68
2022/02/20 06:53:26;;;;;;;25.23;17.88;;;14.90;96.80;;;;;;4993937;28;20044;-64
2022/02/20 06:55:52;;;;;;;24.08;16.90;;;14.90;96.60;;;;;;4993970;28;20073;-73
2022/02/20 06:58:17;;;;;;;25.55;17.17;;;14.90;96.60;;;;;;4993938;28;20030;-72
2022/02/20 07:00:43;;;;;;;25.63;17.88;;;14.90;96.40;;;;;;4993777;28;20081;-71
2022/02/20 07:03:08;;;;;;;26.00;17.80;;;14.90;96.30;;;;;;4993015;28;20034;-74
2022/02/20 07:05:34;;;;;;;27.27;17.90;;;15.00;96.30;;;;;;4994151;28;20460;-69
2022/02/20 07:08:00;;;;;;;23.83;15.73;;;15.00;96.30;;;;;;4993870;28;20472;-72
2022/02/20 07:10:27;;;;;;;23.15;16.13;;;15.00;96.20;;;;;;4994027;28;20033;-67
2022/02/20 07:12:52;;;;;;;23.65;15.00;;;15.00;96.00;;;;;;4994039;28;20026;-73
2022/02/20 07:15:19;;;;;;;25.33;14.23;;;15.00;96.10;;;;;;4993912;28;20372;-65
2022/02/20 07:17:45;;;;;;;26.30;14.63;;;15.00;96.10;;;;;;4993746;28;20022;-65
2022/02/20 07:20:11;;;;;;;22.65;14.75;;;15.00;96.00;;;;;;4993696;28;20045;-76
2022/02/20 07:22:38;;;;;;;20.48;14.50;;;15.00;96.10;;;;;;4975955;28;20042;-63
2022/02/20 07:25:05;;;;;;;23.63;14.85;;;15.00;96.10;;;;;;4976008;28;20033;-75
2022/02/20 07:27:42;;;;;;;18.77;14.05;;;15.00;96.10;;;;;;4993647;28;20019;-76
2022/02/20 07:30:09;;;;;;;23.27;14.32;;;15.10;96.10;;;;;;4993775;28;20030;-68
2022/02/20 07:32:35;;;;;;;27.65;15.20;;;15.10;96.20;;;;;;4993471;28;20034;-69
2022/02/20 07:35:01;;;;;;;20.15;15.95;;;15.10;96.10;;;;;;4993384;28;20030;-75
2022/02/20 07:37:29;;;;;;;22.77;16.40;;;15.20;96.20;;;;;;4993204;28;20439;-65
2022/02/20 07:39:57;;;;;;;20.95;14.95;;;15.20;96.10;;;;;;4993202;28;20171;-64
2022/02/20 07:42:24;;;;;;;25.50;15.80;;;15.10;96.20;;;;;;4993342;28;20113;-65
2022/02/20 07:44:51;;;;;;;23.05;15.18;;;15.10;96.40;;;;;;4993418;28;20105;-64
2022/02/20 07:47:17;;;;;;;26.02;15.65;;;15.10;96.50;;;;;;4994161;28;20065;-64
2022/02/20 07:49:42;;;;;;;21.92;14.57;;;15.10;96.70;;;;;;4993987;28;20031;-67
2022/02/20 07:52:08;;;;;;;23.77;15.00;;;15.10;96.90;;;;;;4996485;28;20086;-75
2022/02/20 07:54:34;;;;;;;20.02;13.13;;;15.00;97.00;;;;;;4997313;28;20579;-64
2022/02/20 07:57:00;;;;;;;19.70;12.80;;;15.00;97.20;;;;;;4994260;28;20403;-73
2022/02/20 07:59:26;;;;;;;23.92;13.50;;;15.10;97.30;;;;;;4975813;28;20049;-72
2022/02/20 08:01:52;;;;;;;19.48;11.85;;;15.10;97.30;;;;;;4974680;28;20058;-69
2022/02/20 08:04:18;;;;;;;20.65;12.10;;;15.10;97.50;;;;;;4993031;28;20061;-66
2022/02/20 08:06:44;;;;;;;18.75;12.43;;;15.20;97.50;;;;;;4992710;28;20423;-67
2022/02/20 08:09:10;;;;;;;20.42;11.48;;;15.20;97.60;;;;;;4992955;28;20018;-65
2022/02/20 08:11:36;;;;;;;18.08;10.93;;;15.20;97.70;;;;;;4968891;28;20034;-71
2022/02/20 08:14:05;;;;;;;21.90;12.48;;;15.20;97.90;;;;;;4966902;28;20026;-71
2022/02/20 08:16:31;;;;;;;26.42;12.18;;;15.30;98.30;;;;;;4996782;28;20042;-74
2022/02/20 08:18:57;;;;;;;21.90;11.57;;;15.30;98.30;;;;;;4996577;28;20045;-68
2022/02/20 08:21:23;;;;;;;24.20;11.38;;;15.20;98.50;;;;;;4996758;28;20065;-63
2022/02/20 08:23:52;;;;;;;23.63;10.77;;;15.30;98.50;;;;;;4996669;28;20030;-70
2022/02/20 08:26:18;;;;;;;26.05;11.18;;;15.30;98.80;;;;;;4996517;28;20019;-75
2022/02/20 08:28:44;;;;;;;31.33;10.90;;;15.30;98.80;;;;;;4978769;28;20034;-74
2022/02/20 08:31:11;;;;;;;27.02;10.35;;;15.30;99.00;;;;;;4996489;28;20049;-78
2022/02/20 08:33:36;;;;;;;18.95;9.73;;;15.30;99.10;;;;;;4996378;28;20046;-65
2022/02/20 08:36:05;;;;;;;26.13;12.75;;;15.30;99.30;;;;;;4999701;28;20042;-66
2022/02/20 08:38:30;;;;;;;31.52;13.38;;;15.30;99.40;;;;;;5001993;28;20030;-66
2022/02/20 08:40:57;;;;;;;28.05;10.25;;;15.30;99.50;;;;;;5005955;28;20110;-66
2022/02/20 08:43:23;;;;;;;19.02;9.27;;;15.30;99.50;;;;;;5001683;28;20169;-66
2022/02/20 08:45:50;;;;;;;25.77;9.00;;;15.30;99.60;;;;;;4996288;28;20030;-69
2022/02/20 08:48:16;;;;;;;25.67;8.40;;;15.40;99.70;;;;;;4995792;28;20026;-66
2022/02/20 08:50:43;;;;;;;25.73;9.13;;;15.40;99.60;;;;;;4995925;28;20026;-65
2022/02/20 08:53:10;;;;;;;22.73;7.18;;;15.40;99.50;;;;;;4976812;28;20033;-70
2022/02/20 08:55:37;;;;;;;29.08;8.90;;;15.30;99.50;;;;;;4995901;28;20361;-70
2022/02/20 08:58:03;;;;;;;24.20;8.45;;;15.30;99.60;;;;;;4996478;28;20029;-67
2022/02/20 09:00:29;;;;;;;22.00;8.20;;;15.40;99.60;;;;;;4996379;28;20049;-66
2022/02/20 09:02:56;;;;;;;26.95;8.38;;;15.40;99.60;;;;;;4996065;28;20396;-67
2022/02/20 09:05:22;;;;;;;30.58;9.00;;;15.50;99.60;;;;;;4995871;28;20027;-66
2022/02/20 09:07:47;;;;;;;23.05;7.97;;;15.50;99.30;;;;;;5000187;28;20073;-67
2022/02/20 09:10:13;;;;;;;23.42;8.02;;;15.60;99.30;;;;;;4999271;28;20054;-69
2022/02/20 09:12:40;;;;;;;21.98;7.30;;;15.60;99.10;;;;;;4996219;28;20031;-65
2022/02/20 09:15:07;;;;;;;21.83;7.78;;;15.70;99.10;;;;;;4992512;28;20025;-70
2022/02/20 09:17:33;;;;;;;23.25;7.40;;;15.70;98.90;;;;;;4977710;28;20038;-75
2022/02/20 09:20:00;;;;;;;24.60;7.05;;;15.70;98.80;;;;;;4977317;28;20455;-69
2022/02/20 09:22:26;;;;;;;27.17;7.35;;;15.60;98.70;;;;;;5010476;28;20052;-66
2022/02/20 09:24:54;;;;;;;32.78;7.07;;;15.60;98.70;;;;;;5009392;28;20023;-68
2022/02/20 09:27:22;;;;;;;21.98;6.05;;;15.60;98.50;;;;;;4996399;28;20034;-67
2022/02/20 09:29:48;;;;;;;27.73;7.22;;;15.50;98.20;;;;;;4995761;28;20388;-68
2022/02/20 09:32:14;;;;;;;30.20;6.85;;;15.50;98.30;;;;;;4962286;28;20077;-66
2022/02/20 09:34:41;;;;;;;26.88;10.43;;;15.60;98.30;;;;;;5012346;28;20475;-67
2022/02/20 09:37:06;;;;;;;33.63;7.25;;;15.60;98.20;;;;;;5014929;28;20491;-74
2022/02/20 09:39:34;;;;;;;27.55;7.80;;;15.60;98.00;;;;;;5015816;28;20042;-74
2022/02/20 09:42:02;;;;;;;28.80;7.88;;;15.60;98.10;;;;;;4984405;28;20526;-71
2022/02/20 09:44:28;;;;;;;28.70;8.27;;;15.60;98.00;;;;;;4994543;28;20026;-73
2022/02/20 09:46:57;;;;;;;29.35;8.88;;;15.70;97.80;;;;;;4995232;28;20118;-69
2022/02/20 09:49:45;;;;;;;32.00;9.05;;;15.80;97.70;;;;;;4995804;28;20019;-73
2022/02/20 09:52:11;;;;;;;26.70;8.50;;;16.00;97.40;;;;;;4994442;28;20534;-74
2022/02/20 09:54:38;;;;;;;27.52;7.32;;;16.00;96.90;;;;;;4995624;28;20027;-67
2022/02/20 09:57:04;;;;;;;26.48;7.90;;;16.00;96.50;;;;;;4993881;28;20114;-67
2022/02/20 09:59:29;;;;;;;33.15;8.23;;;16.10;96.40;;;;;;4994778;28;20049;-70
2022/02/20 10:02:07;;;;;;;27.38;9.60;;;16.10;96.20;;;;;;5001364;28;20474;-71
2022/02/20 10:04:45;;;;;;;30.42;13.48;;;16.10;96.20;;;;;;4994090;28;20084;-74
2022/02/20 10:07:30;;;;;;;26.20;15.60;;;16.20;96.40;;;;;;4989274;28;20503;-66
2022/02/20 10:09:57;;;;;;;29.33;16.55;;;16.20;96.60;;;;;;4988210;28;20103;-66
2022/02/20 10:12:28;;;;;;;31.30;16.23;;;16.10;97.00;;;;;;4996038;28;20097;-66
2022/02/20 10:14:55;;;;;;;28.58;17.27;;;16.10;97.00;;;;;;4975541;28;20050;-67
2022/02/20 10:17:22;;;;;;;28.73;16.58;;;16.10;95.70;;;;;;5009192;28;20421;-68
2022/02/20 10:19:52;;;;;;;32.40;16.00;;;16.10;97.30;;;;;;4976731;28;20022;-68
2022/02/20 10:22:28;;;;;;;32.60;16.90;;;16.10;97.40;;;;;;4994432;28;20116;-68
2022/02/20 10:25:06;;;;;;;34.40;14.38;;;16.10;97.30;;;;;;4994868;28;20038;-67
2022/02/20 10:27:33;;;;;;;27.80;14.07;;;16.10;97.10;;;;;;4994500;28;20019;-69
2022/02/20 10:30:09;;;;;;;30.45;13.98;;;16.10;97.10;;;;;;4970161;28;20026;-67
2022/02/20 10:32:40;;;;;;;29.85;13.85;;;16.30;97.00;;;;;;4974995;28;20035;-68
2022/02/20 10:35:13;;;;;;;31.30;13.20;;;16.40;96.50;;;;;;4975116;28;20059;-67
2022/02/20 10:37:40;;;;;;;27.60;9.60;;;16.60;96.20;;;;;;4987755;28;20121;-67
2022/02/20 10:40:41;;;;;;;33.80;12.10;;;16.70;95.50;;;;;;4976668;28;20030;-68
2022/02/20 10:43:22;;;;;;;31.50;12.40;;;16.80;95.20;;;;;;4962560;28;20125;-69
2022/02/20 10:45:47;;;;;;;30.13;10.50;;;16.80;94.80;;;;;;4994527;28;20073;-70
2022/02/20 10:48:18;;;;;;;28.67;10.93;;;16.90;94.50;;;;;;4995084;28;20034;-68
2022/02/20 10:50:55;;;;;;;32.65;10.40;;;17.10;94.30;;;;;;4976498;28;20057;-68
2022/02/20 10:53:23;;;;;;;32.92;10.52;;;17.10;93.80;;;;;;4994192;28;20050;-69
2022/02/20 10:55:51;;;;;;;26.75;11.80;;;17.20;93.50;;;;;;4994257;28;20022;-68
2022/02/20 10:58:24;;;;;;;29.55;10.68;;;17.20;93.40;;;;;;4994131;28;20618;-68
2022/02/20 11:00:55;;;;;;;;;;;17.30;93.10;;;;;;4994332;28;20022;-69
2022/02/20 11:03:23;;;;;;;28.42;10.63;;;17.50;92.50;;;;;;4994263;28;19985;-70
2022/02/20 11:05:50;;;;;;;28.10;10.82;;;17.60;92.50;;;;;;4992461;28;20033;-71
2022/02/20 11:08:19;;;;;;;29.80;11.13;;;17.70;92.30;;;;;;4998170;28;20029;-72
2022/02/20 11:10:45;;;;;;;29.10;10.45;;;17.80;92.10;;;;;;4993878;28;20030;-69
2022/02/20 11:13:13;;;;;;;27.63;9.20;;;17.80;91.80;;;;;;4994001;28;20030;-68
2022/02/20 11:15:41;;;;;;;30.83;9.40;;;17.80;91.60;;;;;;4976287;28;20015;-69
2022/02/20 11:18:09;;;;;;;29.67;9.07;;;17.80;91.50;;;;;;4976251;28;20053;-70
2022/02/20 11:20:41;;;;;;;35.00;8.77;;;17.70;91.10;;;;;;4976501;28;20026;-74
2022/02/20 11:23:09;;;;;;;36.65;9.93;;;17.70;91.00;;;;;;4996214;28;20057;-67
2022/02/20 11:25:38;;;;;;;29.38;9.45;;;17.80;90.80;;;;;;4993964;28;20027;-67
2022/02/20 11:28:05;;;;;;;26.23;9.35;;;17.90;90.50;;;;;;4993646;28;20035;-67
2022/02/20 11:30:33;;;;;;;29.65;9.93;;;17.90;90.40;;;;;;4994100;28;20032;-68
2022/02/20 11:33:01;;;;;;;34.00;11.10;;;17.90;90.30;;;;;;4976268;28;20033;-66
2022/02/20 11:35:27;;;;;;;28.42;9.05;;;18.00;90.30;;;;;;4993629;28;20113;-69
2022/02/20 11:38:04;;;;;;;26.75;7.38;;;18.10;89.80;;;;;;4993421;28;20529;-68
2022/02/20 11:40:48;;;;;;;26.65;7.32;;;18.10;89.20;;;;;;4976227;28;20537;-72
2022/02/20 11:43:13;;;;;;;27.73;8.23;;;18.10;88.30;;;;;;4993429;28;20057;-71
2022/02/20 11:46:04;;;;;;;31.80;9.85;;;18.10;87.90;;;;;;4993762;28;20018;-71
2022/02/20 11:48:30;;;;;;;24.63;8.80;;;18.10;88.10;;;;;;4984719;28;20022;-71
2022/02/20 11:51:11;;;;;;;25.30;7.80;;;18.00;88.00;;;;;;4997810;28;20035;-70
2022/02/20 11:53:37;;;;;;;20.20;6.93;;;18.00;88.20;;;;;;4997858;28;20022;-72
2022/02/20 11:56:04;;;;;;;20.27;7.50;;;17.90;88.00;;;;;;4980465;28;20419;-73
2022/02/20 11:58:31;;;;;;;21.13;7.22;;;17.80;88.60;;;;;;4997486;28;20026;-73
2022/02/20 12:00:58;;;;;;;29.80;8.60;;;17.80;89.20;;;;;;4980479;28;20041;-72
2022/02/20 12:03:30;;;;;;;31.48;8.57;;;17.70;89.30;;;;;;4999087;28;20499;-76
2022/02/20 12:06:26;;;;;;;25.73;7.65;;;17.70;89.50;;;;;;5000841;28;20026;-73
2022/02/20 12:09:07;;;;;;;36.88;7.80;;;17.60;90.10;;;;;;5010690;28;20053;-70
2022/02/20 12:11:45;;;;;;;22.77;6.32;;;17.50;90.40;;;;;;5012979;28;20022;-76
2022/02/20 12:14:30;;;;;;;22.10;7.28;;;17.50;90.00;;;;;;4985499;28;20045;-74
2022/02/20 12:16:58;;;;;;;19.70;5.80;;;17.50;90.00;;;;;;5001885;28;20042;-71
2022/02/20 12:19:33;;;;;;;22.88;6.00;;;17.50;89.50;;;;;;4997907;28;20106;-69
2022/02/20 12:22:07;;;;;;;22.98;6.38;;;17.50;88.70;;;;;;4997372;28;20122;-69
2022/02/20 12:24:43;;;;;;;25.75;5.93;;;17.70;89.00;;;;;;4997354;28;20080;-71
2022/02/20 12:27:20;;;;;;;22.90;6.00;;;17.90;87.50;;;;;;4991225;28;20057;-64
2022/02/20 12:30:19;;;;;;;30.98;6.30;;;18.00;86.50;;;;;;4978772;28;20027;-65